METAR Data
IDs: Format: Raw Decoded Include TAF

Data at: 2039 UTC 19 May 2019

PAGN 191956Z AUTO 00000KT 10SM OVC080 11/07 A2976 RMK AO2 SLP066 T01110067
PAGN 191856Z AUTO 00000KT 10SM FEW080 SCT100 12/07 A2975 RMK AO2 SLP065 T01170067
PAGN 191756Z AUTO 00000KT 10SM SCT085 BKN110 11/07 A2977 RMK AO2 SLP070 T01060072 10117 20067 58012
PAGN 191656Z AUTO 35003KT 10SM FEW080 BKN120 11/07 A2978 RMK AO2 SLP074 T01110067
PAGN 191556Z AUTO 35003KT 10SM FEW090 09/07 A2980 RMK AO2 SLP079 T00940067
PAGN 191456Z AUTO 00000KT 10SM SCT100 BKN120 08/06 A2981 RMK AO2 SLP082 T00830061 58006
PAGN 191356Z AUTO 00000KT 10SM BKN095 07/06 A2982 RMK AO2 SLP088 T00670061
PAGN 191256Z AUTO 00000KT 10SM CLR 07/06 A2982 RMK AO2 SLP087 T00670056
PAGN 191156Z AUTO 00000KT 10SM BKN100 07/06 A2982 RMK AO2 SLP088 60000 T00720061 10106 20067 58005
PAGN 191056Z AUTO 00000KT 10SM BKN095 07/06 A2983 RMK AO2 SLP090 T00720061
PAGN 190956Z AUTO 00000KT 10SM FEW090 08/07 A2984 RMK AO2 SLP094 T00780067
PAGN 190856Z AUTO 00000KT 10SM FEW080 08/07 A2984 RMK AO2 SLP094 60000 T00780067 401610072 58003
PAGN 190756Z AUTO 00000KT 10SM OVC075 09/08 A2984 RMK AO2 SLP094 T00890078
PAGN 190656Z AUTO 00000KT 10SM BKN070 11/07 A2985 RMK AO2 RAB01E18 SLP097 P0000 T01060072
PAGN 190556Z AUTO 14003KT 10SM BKN070 OVC100 11/07 A2985 RMK AO2 SLP097 T01060072 10156 20106 53001
PAGN 190456Z AUTO 00000KT 10SM FEW120 12/07 A2984 RMK AO2 SLP093 T01170067
PAGN 190356Z AUTO 25003KT 10SM BKN065 OVC090 12/07 A2984 RMK AO2 SLP095 T01170067
PAGN 190256Z AUTO VRB03KT 10SM OVC070 16/05 A2985 RMK AO2 SLP096 T01560050 55005
PAGN 190156Z AUTO 00000KT 10SM OVC070 14/06 A2984 RMK AO2 SLP095 T01390061
PAGN 190056Z AUTO 00000KT 10SM CLR 16/06 A2985 RMK AO2 SLP097 T01560056
PAGN 182356Z AUTO 00000KT 10SM OVC100 14/05 A2986 RMK AO2 SLP101 T01440050 10161 20128 55002
PAGN 182256Z AUTO 34005KT 10SM SCT060 BKN100 13/05 A2986 RMK AO2 SLP100 T01330050
PAGN 182156Z AUTO 00000KT 10SM SCT060 BKN075 OVC100 13/06 A2986 RMK AO2 SLP101 T01330056
PAGN 182056Z AUTO VRB03KT 10SM OVC060 13/06 A2987 RMK AO2 SLP103 T01330056 53001
PAGN 181956Z AUTO 13006KT 10SM OVC055 16/04 A2986 RMK AO2 SLP102 T01560039
PAGN 181856Z AUTO 14008KT 10SM CLR 15/04 A2986 RMK AO2 SLP101 T01500039
PAGN 181756Z AUTO 13006KT 10SM FEW047 BKN065 BKN090 13/04 A2986 RMK AO2 SLP102 T01330044 10139 20072 51006
PAGN 181656Z AUTO 10003KT 10SM SCT050 BKN060 13/06 A2986 RMK AO2 SLP100 T01280061
PAGN 181556Z AUTO 06007KT 10SM FEW050 OVC095 11/07 A2985 RMK AO2 SLP097 T01060067
PAGN 181456Z AUTO 08007KT 10SM SCT070 OVC100 10/06 A2984 RMK AO2 SLP095 T01000061 53002
PAGN 181356Z AUTO 08005KT 10SM FEW048 OVC065 09/06 A2984 RMK AO2 SLP094 T00890061
PAGN 181256Z AUTO 07006KT 10SM OVC050 08/06 A2984 RMK AO2 SLP093 T00830061
PAGN 181156Z AUTO 00000KT 10SM OVC048 07/07 A2984 RMK AO2 RAB28E39 SLP093 P0000 60000 70011 T00720067 10094 20072 51012
PAGN 181056Z AUTO 00000KT 10SM OVC055 07/07 A2983 RMK AO2 SLP090 T00720067
PAGN 180956Z AUTO 00000KT 10SM BKN085 OVC110 07/07 A2981 RMK AO2 SLP085 T00720067
PAGN 180856Z AUTO VRB03KT 10SM FEW025 08/07 A2980 RMK AO2 SLP081 T00780072 401220072 53016